Time;durP1;ratioP1;P1;durP2;ratioP2;P2;SDS_P1;SDS_P2;PMS_P1;PMS_P2;Temp;Humidity;BMP_temperature;BMP_pressure;BME280_temperature;BME280_humidity;BME280_pressure;Samples;Min_cycle;Max_cycle;Signal;HPM_P1;HPM_P2
2021/10/22 00:01:32;;;;;;;6.83;2.03;;;8.80;99.90;;;;;;5022408;28;20415;-81
2021/10/22 00:03:58;;;;;;;1.60;1.50;;;8.80;99.90;;;;;;5041741;28;20405;-81
2021/10/22 00:06:25;;;;;;;2.40;2.20;;;8.70;99.90;;;;;;5037085;28;20412;-80
2021/10/22 00:08:51;;;;;;;4.80;1.80;;;8.80;99.90;;;;;;5034505;28;20444;-81
2021/10/22 00:11:17;;;;;;;2.90;2.43;;;8.70;99.90;;;;;;5036221;28;20503;-82
2021/10/22 00:14:03;;;;;;;6.93;2.23;;;8.70;99.90;;;;;;5022781;28;20415;-80
2021/10/22 00:16:30;;;;;;;4.30;1.70;;;8.70;99.90;;;;;;5012514;28;20902;-82
2021/10/22 00:18:56;;;;;;;2.23;2.03;;;8.70;99.90;;;;;;4996545;28;20421;-82
2021/10/22 00:21:22;;;;;;;2.53;1.70;;;8.70;99.90;;;;;;5012117;28;20558;-82
2021/10/22 00:23:48;;;;;;;4.57;2.67;;;8.70;99.90;;;;;;5012817;28;20396;-81
2021/10/22 00:26:14;;;;;;;3.57;2.17;;;8.70;99.90;;;;;;5009680;28;20380;-82
2021/10/22 00:28:41;;;;;;;8.07;2.00;;;8.70;99.90;;;;;;5011637;28;20515;-81
2021/10/22 00:31:07;;;;;;;10.13;2.40;;;8.70;99.90;;;;;;5011973;28;20436;-82
2021/10/22 00:33:33;;;;;;;6.20;2.03;;;8.70;99.90;;;;;;5012105;28;20482;-81
2021/10/22 00:36:02;;;;;;;1.93;1.67;;;8.70;99.90;;;;;;5012362;28;20473;-82
2021/10/22 00:38:28;;;;;;;5.50;2.33;;;8.70;99.90;;;;;;5012325;28;20401;-81
2021/10/22 00:40:54;;;;;;;4.13;2.00;;;8.60;99.90;;;;;;4992191;28;20414;-82
2021/10/22 00:43:21;;;;;;;2.60;1.87;;;8.60;99.90;;;;;;4993157;28;20429;-82
2021/10/22 00:45:51;;;;;;;4.00;2.30;;;8.50;99.90;;;;;;5025577;28;20412;-81
2021/10/22 00:48:19;;;;;;;4.90;2.70;;;8.60;99.90;;;;;;5031714;28;20390;-81
2021/10/22 00:50:49;;;;;;;9.27;2.57;;;8.60;99.90;;;;;;5032348;28;20499;-82
2021/10/22 00:53:16;;;;;;;2.43;1.67;;;8.60;99.90;;;;;;5031842;28;20379;-81
2021/10/22 00:55:42;;;;;;;3.90;1.90;;;8.60;99.90;;;;;;5032647;28;20412;-81
2021/10/22 00:58:10;;;;;;;1.83;1.60;;;8.50;99.90;;;;;;5033513;28;20400;-82
2021/10/22 01:00:36;;;;;;;4.43;2.33;;;8.50;99.90;;;;;;5033378;28;20446;-82
2021/10/22 01:03:05;;;;;;;10.57;2.23;;;8.50;99.90;;;;;;5032902;28;20400;-82
2021/10/22 01:05:32;;;;;;;4.17;2.23;;;8.50;99.90;;;;;;5032283;28;20440;-82
2021/10/22 01:07:58;;;;;;;3.03;1.80;;;8.50;99.90;;;;;;5029309;28;20390;-82
2021/10/22 01:10:24;;;;;;;8.43;2.70;;;8.50;99.90;;;;;;5013679;28;20419;-83
2021/10/22 01:12:50;;;;;;;7.10;2.53;;;8.40;99.90;;;;;;5014437;28;20409;-82
2021/10/22 01:15:16;;;;;;;3.40;2.10;;;8.40;99.90;;;;;;5015027;28;20416;-82
2021/10/22 01:17:46;;;;;;;2.60;2.20;;;8.40;99.90;;;;;;5020180;28;20480;-81
2021/10/22 01:20:16;;;;;;;6.77;2.50;;;8.40;99.90;;;;;;5019261;28;20398;-80
2021/10/22 01:22:43;;;;;;;9.37;4.10;;;8.50;99.90;;;;;;5020029;28;20429;-80
2021/10/22 01:25:15;;;;;;;13.53;3.03;;;8.50;99.90;;;;;;5020621;28;20421;-81
2021/10/22 01:27:41;;;;;;;3.17;2.00;;;8.50;99.90;;;;;;5054873;28;20863;-81
2021/10/22 01:30:11;;;;;;;3.43;2.50;;;8.60;99.90;;;;;;5048305;28;20460;-81
2021/10/22 01:32:38;;;;;;;6.97;2.30;;;8.50;99.90;;;;;;5038898;28;20396;-81
2021/10/22 01:35:06;;;;;;;2.03;1.83;;;8.50;99.90;;;;;;5038138;28;20468;-80
2021/10/22 01:37:32;;;;;;;5.53;2.40;;;8.30;99.90;;;;;;5044772;28;20412;-81
2021/10/22 01:39:58;;;;;;;5.13;2.23;;;8.00;99.90;;;;;;5052906;28;20395;-82
2021/10/22 01:42:25;;;;;;;4.30;2.33;;;8.10;99.90;;;;;;5040347;28;20420;-82
2021/10/22 01:44:51;;;;;;;5.67;2.77;;;8.20;99.90;;;;;;5048622;28;20473;-82
2021/10/22 01:47:19;;;;;;;2.37;2.17;;;8.30;99.90;;;;;;5050706;28;20400;-82
2021/10/22 01:49:46;;;;;;;2.90;2.33;;;8.20;99.90;;;;;;5043149;28;20471;-81
2021/10/22 01:52:12;;;;;;;1.83;1.53;;;8.20;99.90;;;;;;5033543;28;20392;-81
2021/10/22 01:54:38;;;;;;;8.70;2.50;;;7.60;99.90;;;;;;5034394;28;20405;-81
2021/10/22 01:57:05;;;;;;;2.27;2.13;;;7.50;99.90;;;;;;5033696;28;20411;-81
2021/10/22 01:59:32;;;;;;;2.27;2.07;;;7.60;99.90;;;;;;5051102;28;20404;-82
2021/10/22 02:01:59;;;;;;;8.70;3.63;;;7.70;99.90;;;;;;5051693;28;20399;-81
2021/10/22 02:04:25;;;;;;;3.30;2.20;;;7.80;99.90;;;;;;5043193;28;20425;-82
2021/10/22 02:06:51;;;;;;;3.43;2.50;;;7.90;99.90;;;;;;5036278;28;20427;-81
2021/10/22 02:09:18;;;;;;;5.17;2.90;;;8.00;99.90;;;;;;5035319;28;20777;-81
2021/10/22 02:11:45;;;;;;;3.63;2.50;;;7.90;99.90;;;;;;5052163;28;20430;-81
2021/10/22 02:14:14;;;;;;;3.17;2.60;;;7.90;99.90;;;;;;5051834;28;20388;-82
2021/10/22 02:16:43;;;;;;;4.90;2.83;;;7.90;99.90;;;;;;5052127;28;20383;-82
2021/10/22 02:19:09;;;;;;;3.87;2.30;;;7.90;99.90;;;;;;5033048;28;20436;-82
2021/10/22 02:21:36;;;;;;;2.53;2.40;;;7.60;99.90;;;;;;5032040;28;20440;-81
2021/10/22 02:24:02;;;;;;;2.93;2.70;;;7.20;99.90;;;;;;5032111;28;20473;-81
2021/10/22 02:26:28;;;;;;;6.17;2.87;;;6.90;99.90;;;;;;5043199;28;20469;-81
2021/10/22 02:28:54;;;;;;;3.30;2.70;;;6.80;99.90;;;;;;5052149;28;20458;-82
2021/10/22 02:31:20;;;;;;;5.93;3.63;;;7.00;99.90;;;;;;5046748;28;20404;-81
2021/10/22 02:33:46;;;;;;;4.53;3.17;;;6.80;99.90;;;;;;5031354;28;20378;-81
2021/10/22 02:36:13;;;;;;;2.80;2.60;;;6.60;99.90;;;;;;5032075;28;20535;-80
2021/10/22 02:38:39;;;;;;;4.03;2.93;;;6.70;99.90;;;;;;5014610;28;20408;-81
2021/10/22 02:41:06;;;;;;;2.80;2.47;;;6.60;99.90;;;;;;5033407;28;20465;-81
2021/10/22 02:43:32;;;;;;;12.43;3.30;;;6.50;99.90;;;;;;5050614;28;20459;-81
2021/10/22 02:45:58;;;;;;;3.43;3.13;;;6.50;99.90;;;;;;5048257;28;20415;-79
2021/10/22 02:48:24;;;;;;;3.83;3.03;;;6.40;99.90;;;;;;5032280;28;20405;-81
2021/10/22 02:50:50;;;;;;;4.67;3.40;;;6.40;99.90;;;;;;5048241;28;20710;-81
2021/10/22 02:53:17;;;;;;;6.43;4.10;;;6.70;99.90;;;;;;5052706;28;20396;-81
2021/10/22 02:55:43;;;;;;;6.10;4.17;;;6.80;99.90;;;;;;5045562;28;20407;-82
2021/10/22 02:58:09;;;;;;;6.40;3.77;;;6.90;99.90;;;;;;5031787;28;20380;-82
2021/10/22 03:00:36;;;;;;;3.03;2.60;;;6.90;99.90;;;;;;5045474;28;20419;-82
2021/10/22 03:03:03;;;;;;;3.27;2.97;;;7.10;99.90;;;;;;5033425;28;20457;-81
2021/10/22 03:05:30;;;;;;;5.53;3.23;;;7.20;99.90;;;;;;5051814;28;20414;-81
2021/10/22 03:07:56;;;;;;;3.27;2.97;;;7.20;99.90;;;;;;5052133;28;20411;-82
2021/10/22 03:10:23;;;;;;;7.60;3.43;;;7.30;99.90;;;;;;5038733;28;20464;-81
2021/10/22 03:12:49;;;;;;;3.97;3.43;;;7.10;99.90;;;;;;5030292;28;20412;-81
2021/10/22 03:15:16;;;;;;;4.90;3.70;;;6.70;99.90;;;;;;5031113;28;20400;-82
2021/10/22 03:17:45;;;;;;;3.87;2.70;;;6.90;99.90;;;;;;5020591;28;20416;-81
2021/10/22 03:20:12;;;;;;;8.27;3.73;;;6.70;99.90;;;;;;5039278;28;20416;-81
2021/10/22 03:22:39;;;;;;;3.40;3.03;;;6.50;99.90;;;;;;5030593;28;20432;-82
2021/10/22 03:25:06;;;;;;;9.33;4.20;;;6.40;99.90;;;;;;5029580;28;20436;-82
2021/10/22 03:27:34;;;;;;;5.10;2.70;;;6.40;99.90;;;;;;5031763;28;20410;-82
2021/10/22 03:30:04;;;;;;;10.40;4.20;;;6.40;99.90;;;;;;5031219;28;20467;-82
2021/10/22 03:32:32;;;;;;;12.10;3.30;;;6.40;99.90;;;;;;5030467;28;20393;-82
2021/10/22 03:35:00;;;;;;;8.63;3.73;;;6.40;99.90;;;;;;5028862;28;20456;-82
2021/10/22 03:37:26;;;;;;;3.43;3.13;;;6.40;99.90;;;;;;5030344;28;20403;-82
2021/10/22 03:39:54;;;;;;;4.00;3.07;;;6.70;99.90;;;;;;5050916;28;20393;-81
2021/10/22 03:42:20;;;;;;;5.50;3.20;;;6.70;99.90;;;;;;5052331;28;20880;-82
2021/10/22 03:44:46;;;;;;;5.80;4.40;;;7.00;99.90;;;;;;5056578;28;20403;-80
2021/10/22 03:47:12;;;;;;;4.70;3.00;;;7.10;99.90;;;;;;5037368;28;20424;-79
2021/10/22 03:49:38;;;;;;;3.60;3.30;;;7.20;99.90;;;;;;5033938;28;20484;-81
2021/10/22 03:52:05;;;;;;;3.93;3.53;;;7.20;99.90;;;;;;5034381;28;20424;-82
2021/10/22 03:54:31;;;;;;;6.00;3.73;;;7.10;99.90;;;;;;5034683;28;20428;-82
2021/10/22 03:56:57;;;;;;;3.47;3.23;;;7.20;99.90;;;;;;5034744;28;20407;-81
2021/10/22 03:59:23;;;;;;;4.30;2.50;;;6.80;99.90;;;;;;5034896;28;20411;-81
2021/10/22 04:01:50;;;;;;;5.57;3.50;;;7.00;99.90;;;;;;5033128;28;20386;-82
2021/10/22 04:04:17;;;;;;;9.43;4.10;;;7.10;99.90;;;;;;5045283;28;20404;-81
2021/10/22 04:06:43;;;;;;;2.97;2.77;;;7.30;99.90;;;;;;5038638;28;20431;-82
2021/10/22 04:09:10;;;;;;;6.60;3.77;;;7.30;99.90;;;;;;5034605;28;20419;-81
2021/10/22 04:11:36;;;;;;;6.43;3.40;;;7.30;99.90;;;;;;5034443;28;20454;-82
2021/10/22 04:14:04;;;;;;;5.07;3.80;;;7.30;99.90;;;;;;5034352;28;20427;-81
2021/10/22 04:16:30;;;;;;;11.63;3.73;;;7.40;99.90;;;;;;5034463;28;20392;-81
2021/10/22 04:18:59;;;;;;;5.67;3.30;;;7.40;99.90;;;;;;5033375;28;20484;-82
2021/10/22 04:21:25;;;;;;;5.20;3.60;;;7.30;99.90;;;;;;5034116;28;20436;-80
2021/10/22 04:23:51;;;;;;;7.00;4.17;;;7.20;99.90;;;;;;5041650;28;20415;-82
2021/10/22 04:26:17;;;;;;;9.80;5.27;;;7.20;99.90;;;;;;5049675;28;20399;-81
2021/10/22 04:28:43;;;;;;;8.83;5.10;;;7.20;99.90;;;;;;5033590;28;20379;-81
2021/10/22 04:31:09;;;;;;;8.67;5.03;;;7.30;99.90;;;;;;5049643;28;20408;-82
2021/10/22 04:33:36;;;;;;;9.60;6.43;;;7.20;99.90;;;;;;5032819;28;20375;-81
2021/10/22 04:36:02;;;;;;;6.13;3.60;;;7.10;99.90;;;;;;5042171;28;20530;-82
2021/10/22 04:41:14;;;;;;;12.57;3.90;;;7.20;99.90;;;;;;5034918;28;20396;-81
2021/10/22 04:43:41;;;;;;;4.73;3.10;;;6.70;99.90;;;;;;5041440;28;20385;-81
2021/10/22 04:46:07;;;;;;;3.70;3.40;;;6.40;99.90;;;;;;5054949;28;20411;-81
2021/10/22 04:48:33;;;;;;;6.03;3.53;;;6.20;99.90;;;;;;5054305;28;20425;-81
2021/10/22 04:50:59;;;;;;;4.50;3.37;;;6.10;99.90;;;;;;5035600;28;20382;-83
2021/10/22 04:53:26;;;;;;;3.10;2.33;;;6.20;99.90;;;;;;5032895;28;20494;-81
2021/10/22 04:55:53;;;;;;;7.73;4.53;;;6.20;99.90;;;;;;5030997;28;20412;-82
2021/10/22 04:58:20;;;;;;;4.93;4.17;;;6.10;99.90;;;;;;5042676;28;20415;-82
2021/10/22 05:00:46;;;;;;;4.23;3.20;;;6.00;99.90;;;;;;5052280;28;20388;-82
2021/10/22 05:03:13;;;;;;;5.10;4.60;;;6.10;99.90;;;;;;5049053;28;20486;-81
2021/10/22 05:05:39;;;;;;;6.10;5.00;;;6.10;99.90;;;;;;5032360;28;20404;-82
2021/10/22 05:08:06;;;;;;;5.10;4.00;;;6.00;99.90;;;;;;5032108;28;20392;-81
2021/10/22 05:10:32;;;;;;;6.20;4.20;;;6.30;99.90;;;;;;5014697;28;20425;-81
2021/10/22 05:12:59;;;;;;;13.03;6.17;;;6.50;99.90;;;;;;5033131;28;20401;-81
2021/10/22 05:15:26;;;;;;;13.67;4.00;;;6.60;99.90;;;;;;5031577;28;20397;-82
2021/10/22 05:17:52;;;;;;;9.10;5.87;;;6.50;99.90;;;;;;5033402;28;20386;-81
2021/10/22 05:20:19;;;;;;;8.33;3.77;;;6.70;99.90;;;;;;5044564;28;20740;-81
2021/10/22 05:22:45;;;;;;;14.30;3.93;;;6.80;99.90;;;;;;5039564;28;20469;-81
2021/10/22 05:25:12;;;;;;;6.33;3.40;;;7.00;99.90;;;;;;5036567;28;20401;-81
2021/10/22 05:27:39;;;;;;;13.60;3.50;;;6.80;99.90;;;;;;5048787;28;20915;-82
2021/10/22 05:30:07;;;;;;;7.57;3.30;;;6.60;99.90;;;;;;5032687;28;20444;-81
2021/10/22 05:32:34;;;;;;;3.73;3.43;;;6.40;99.90;;;;;;5045637;28;20924;-81
2021/10/22 05:35:00;;;;;;;12.07;3.53;;;6.50;99.90;;;;;;5034456;28;20464;-81
2021/10/22 05:37:26;;;;;;;4.90;2.60;;;6.40;99.90;;;;;;5036698;28;20416;-82
2021/10/22 05:39:53;;;;;;;6.87;3.43;;;6.40;99.90;;;;;;5033250;28;20409;-81
2021/10/22 05:42:19;;;;;;;3.60;2.77;;;6.20;99.90;;;;;;5030630;28;20431;-82
2021/10/22 05:44:45;;;;;;;9.27;2.80;;;6.20;99.90;;;;;;5032581;28;20424;-81
2021/10/22 05:47:13;;;;;;;4.53;3.53;;;6.20;99.90;;;;;;5030646;28;20524;-80
2021/10/22 05:49:40;;;;;;;4.20;3.30;;;6.00;99.90;;;;;;5030301;28;20508;-80
2021/10/22 05:52:07;;;;;;;15.10;4.10;;;6.20;99.90;;;;;;5019775;28;20493;-79
2021/10/22 05:54:54;;;;;;;7.50;4.33;;;6.40;99.90;;;;;;5033003;28;20458;-81
2021/10/22 05:57:23;;;;;;;14.30;3.63;;;6.60;99.90;;;;;;5028140;28;20898;-78
2021/10/22 05:59:53;;;;;;;6.97;3.47;;;6.70;99.90;;;;;;4955797;28;20953;-80
2021/10/22 06:02:22;;;;;;;15.57;5.70;;;6.80;99.90;;;;;;4965478;28;20401;-78
2021/10/22 06:04:49;;;;;;;10.87;3.40;;;6.90;99.90;;;;;;4939973;28;20420;-81
2021/10/22 06:07:15;;;;;;;6.80;4.53;;;6.90;99.90;;;;;;4955236;28;20449;-80
2021/10/22 06:09:42;;;;;;;18.03;3.90;;;7.10;99.90;;;;;;4910328;29;20442;-81
2021/10/22 06:12:11;;;;;;;8.87;3.10;;;6.60;99.90;;;;;;4937745;29;20830;-81
2021/10/22 06:14:42;;;;;;;8.13;4.27;;;6.70;99.90;;;;;;4927942;29;20471;-81
2021/10/22 06:17:11;;;;;;;7.47;4.37;;;6.90;99.90;;;;;;4885470;29;20767;-82
2021/10/22 06:19:40;;;;;;;4.73;2.63;;;7.00;99.90;;;;;;4913527;29;20444;-82
2021/10/22 06:22:11;;;;;;;3.93;3.13;;;6.90;99.90;;;;;;4910952;28;20487;-80
2021/10/22 06:24:38;;;;;;;17.03;3.50;;;6.90;99.90;;;;;;4910357;29;20452;-81
2021/10/22 06:27:12;;;;;;;5.20;3.43;;;6.80;99.90;;;;;;4895144;29;20423;-82
2021/10/22 06:29:39;;;;;;;5.27;3.00;;;7.00;99.90;;;;;;4867361;29;20954;-82
2021/10/22 06:32:05;;;;;;;8.37;3.70;;;7.20;99.90;;;;;;4892384;29;20416;-80
2021/10/22 06:34:31;;;;;;;12.83;3.60;;;7.20;99.90;;;;;;4888745;29;20477;-81
2021/10/22 06:37:05;;;;;;;7.73;3.00;;;7.30;99.90;;;;;;4882649;29;20469;-82
2021/10/22 06:39:32;;;;;;;9.30;2.97;;;7.10;99.90;;;;;;4892609;29;20465;-81
2021/10/22 06:42:01;;;;;;;12.10;3.27;;;7.10;99.90;;;;;;4917674;29;20437;-81
2021/10/22 06:44:48;;;;;;;3.60;3.00;;;7.00;99.90;;;;;;4923709;29;20446;-80
2021/10/22 06:47:16;;;;;;;6.47;3.33;;;7.10;99.90;;;;;;4929942;29;20432;-80
2021/10/22 06:49:45;;;;;;;4.03;3.10;;;7.20;99.90;;;;;;4893038;29;20472;-80
2021/10/22 06:52:17;;;;;;;4.17;2.80;;;7.10;99.90;;;;;;4919355;29;20486;-82
2021/10/22 06:54:43;;;;;;;12.50;3.00;;;7.20;99.90;;;;;;4906659;29;20526;-81
2021/10/22 06:57:09;;;;;;;9.13;3.40;;;7.20;99.90;;;;;;4919589;29;20404;-80
2021/10/22 06:59:35;;;;;;;5.90;3.70;;;7.30;99.90;;;;;;4931453;29;20507;-81
2021/10/22 07:02:01;;;;;;;2.33;2.13;;;7.40;99.90;;;;;;4950952;29;20994;-80
2021/10/22 07:04:27;;;;;;;9.37;4.07;;;7.60;99.90;;;;;;4930688;29;20472;-80
2021/10/22 07:09:37;;;;;;;7.00;3.00;;;7.50;99.90;;;;;;4931439;29;20465;-80
2021/10/22 07:12:06;;;;;;;13.43;4.10;;;7.70;99.90;;;;;;4948050;29;20428;-82
2021/10/22 07:14:35;;;;;;;5.10;3.77;;;7.70;99.90;;;;;;4954629;29;20489;-79
2021/10/22 07:17:02;;;;;;;8.50;3.50;;;7.70;99.90;;;;;;4976889;28;20446;-80
2021/10/22 07:19:28;;;;;;;12.60;3.20;;;7.90;99.90;;;;;;4950987;29;20446;-81
2021/10/22 07:21:59;;;;;;;5.90;3.50;;;8.10;99.90;;;;;;4968254;28;20458;-80
2021/10/22 07:24:25;;;;;;;3.10;2.83;;;8.00;99.90;;;;;;4953194;29;20458;-81
2021/10/22 07:26:51;;;;;;;4.33;3.97;;;8.20;99.90;;;;;;4957319;29;20431;-81
2021/10/22 07:29:18;;;;;;;5.60;3.20;;;8.20;99.90;;;;;;4954666;29;20500;-81
2021/10/22 07:32:05;;;;;;;7.67;3.10;;;7.90;99.90;;;;;;4955623;29;20431;-81
2021/10/22 07:34:32;;;;;;;6.80;3.10;;;8.10;99.90;;;;;;4989104;28;20469;-82
2021/10/22 07:36:58;;;;;;;4.63;2.97;;;8.20;99.90;;;;;;5004367;28;20468;-80
2021/10/22 07:39:47;;;;;;;5.17;3.43;;;8.30;99.90;;;;;;5003646;28;20444;-81
2021/10/22 07:42:13;;;;;;;19.57;4.47;;;8.20;99.90;;;;;;4970859;28;20453;-82
2021/10/22 07:44:39;;;;;;;11.37;5.10;;;8.40;99.90;;;;;;4956868;28;21001;-78
2021/10/22 07:47:07;;;;;;;5.53;2.70;;;8.50;99.90;;;;;;4990261;28;20437;-80
2021/10/22 07:49:37;;;;;;;3.93;2.83;;;8.60;99.90;;;;;;4993051;28;20469;-80
2021/10/22 07:52:06;;;;;;;7.73;2.70;;;8.70;99.90;;;;;;4991296;28;20497;-80
2021/10/22 07:54:52;;;;;;;7.30;3.57;;;8.80;99.90;;;;;;4970913;28;20604;-79
2021/10/22 07:57:21;;;;;;;4.67;2.93;;;9.10;99.90;;;;;;4914587;29;20463;-81
2021/10/22 08:00:07;;;;;;;3.40;2.30;;;9.20;99.90;;;;;;4875777;29;20594;-80
2021/10/22 08:02:37;;;;;;;6.97;2.83;;;8.80;99.90;;;;;;4867324;29;20649;-80
2021/10/22 08:05:43;;;;;;;6.60;2.67;;;9.10;99.90;;;;;;4812461;29;20560;-82
2021/10/22 08:08:11;;;;;;;2.80;2.60;;;8.80;99.90;;;;;;4812586;29;20496;-81
2021/10/22 08:10:41;;;;;;;6.73;2.57;;;9.70;99.90;;;;;;4789891;29;20466;-81
2021/10/22 08:13:11;;;;;;;10.67;4.37;;;10.20;99.90;;;;;;4797404;29;20443;-81
2021/10/22 08:15:41;;;;;;;10.23;4.77;;;10.70;99.90;;;;;;4796572;29;20490;-80
2021/10/22 08:18:17;;;;;;;14.90;3.53;;;11.10;99.90;;;;;;4792994;30;20861;-81
2021/10/22 08:21:04;;;;;;;5.00;2.60;;;11.00;99.90;;;;;;4793480;29;20470;-81
2021/10/22 08:23:36;;;;;;;10.80;3.03;;;11.10;99.90;;;;;;4808138;29;20458;-81
2021/10/22 08:26:02;;;;;;;6.57;3.30;;;11.00;99.90;;;;;;4784112;29;20526;-80
2021/10/22 08:28:32;;;;;;;11.63;4.10;;;11.70;99.90;;;;;;4802225;29;20434;-82
2021/10/22 08:31:07;;;;;;;6.03;3.03;;;12.10;99.90;;;;;;4815434;29;20437;-82
2021/10/22 08:33:34;;;;;;;6.87;3.57;;;11.80;99.90;;;;;;4843429;29;20567;-84
2021/10/22 08:36:00;;;;;;;8.70;3.47;;;11.10;99.90;;;;;;4831489;29;20484;-83
2021/10/22 08:38:27;;;;;;;4.53;3.00;;;12.30;99.90;;;;;;4829229;29;20950;-82
2021/10/22 08:40:56;;;;;;;3.60;2.57;;;12.50;99.90;;;;;;4856289;29;20551;-84
2021/10/22 08:43:25;;;;;;;6.20;3.10;;;12.80;99.90;;;;;;4880718;29;20448;-84
2021/10/22 08:45:54;;;;;;;4.43;2.40;;;11.20;99.90;;;;;;4914742;29;20433;-84
2021/10/22 08:48:20;;;;;;;9.40;2.63;;;11.80;99.90;;;;;;4900683;29;20513;-82
2021/10/22 08:50:46;;;;;;;9.47;3.07;;;12.80;99.90;;;;;;4930421;29;20467;-83
2021/10/22 08:53:13;;;;;;;5.13;2.43;;;12.60;99.90;;;;;;4942477;28;20481;-83
2021/10/22 08:55:39;;;;;;;7.63;2.50;;;12.50;99.90;;;;;;4957660;29;20550;-82
2021/10/22 08:58:05;;;;;;;4.77;3.10;;;13.00;99.90;;;;;;4951774;28;20492;-83
2021/10/22 09:00:32;;;;;;;6.57;3.87;;;14.00;99.90;;;;;;4954684;28;20463;-80
2021/10/22 09:03:09;;;;;;;5.60;3.23;;;14.20;99.90;;;;;;4992413;28;20546;-83
2021/10/22 09:05:38;;;;;;;8.63;3.10;;;13.50;99.90;;;;;;4992311;28;20635;-83
2021/10/22 09:08:05;;;;;;;4.17;3.00;;;13.30;99.90;;;;;;4990906;28;20941;-83
2021/10/22 09:10:35;;;;;;;5.60;2.93;;;14.20;99.90;;;;;;4997437;28;20473;-83
2021/10/22 09:13:08;;;;;;;3.87;2.93;;;14.40;99.90;;;;;;4999747;28;20440;-80
2021/10/22 09:15:40;;;;;;;4.90;2.47;;;14.20;99.90;;;;;;4994877;28;20433;-83
2021/10/22 09:18:20;;;;;;;4.80;2.70;;;14.70;99.90;;;;;;5022079;28;20443;-82
2021/10/22 09:20:49;;;;;;;6.17;2.67;;;14.30;99.90;;;;;;5019562;28;20490;-82
2021/10/22 09:23:25;;;;;;;4.87;2.27;;;15.20;99.90;;;;;;5021810;28;20907;-83
2021/10/22 09:25:52;;;;;;;8.83;3.70;;;14.20;99.90;;;;;;5018711;28;20551;-83
2021/10/22 09:28:27;;;;;;;4.83;2.53;;;14.70;99.90;;;;;;5002300;28;21105;-81
2021/10/22 09:30:53;;;;;;;7.23;2.30;;;15.60;99.90;;;;;;5021533;28;20459;-82
2021/10/22 09:33:21;;;;;;;4.30;2.67;;;15.80;99.90;;;;;;5014239;28;20461;-83
2021/10/22 09:35:51;;;;;;;6.83;3.10;;;13.30;99.90;;;;;;5017752;28;20465;-81
2021/10/22 09:38:23;;;;;;;10.07;3.30;;;14.60;99.90;;;;;;5015603;28;20519;-82
2021/10/22 09:40:53;;;;;;;3.90;2.40;;;14.10;99.90;;;;;;5018009;28;20432;-81
2021/10/22 09:43:30;;;;;;;8.43;2.50;;;14.20;99.90;;;;;;5014324;28;20439;-82
2021/10/22 09:46:16;;;;;;;7.40;2.77;;;15.70;99.90;;;;;;5016691;28;20774;-83
2021/10/22 09:48:46;;;;;;;7.70;3.07;;;15.20;99.90;;;;;;5014821;28;20479;-82
2021/10/22 09:51:28;;;;;;;5.43;2.27;;;16.70;99.90;;;;;;5028616;28;20432;-83
2021/10/22 09:53:57;;;;;;;5.57;3.50;;;17.50;99.90;;;;;;5030636;28;20424;-82
2021/10/22 09:56:26;;;;;;;3.50;2.53;;;18.70;99.90;;;;;;5008442;28;20436;-80
2021/10/22 09:59:04;;;;;;;11.37;3.23;;;20.20;99.90;;;;;;5003850;28;20453;-81
2021/10/22 10:01:37;;;;;;;4.50;2.13;;;21.60;96.90;;;;;;5008601;28;20859;-81
2021/10/22 10:04:06;;;;;;;3.40;2.40;;;21.80;94.10;;;;;;4978308;28;20955;-81
2021/10/22 10:06:33;;;;;;;4.00;2.40;;;21.60;92.70;;;;;;4981532;28;20452;-80
2021/10/22 10:09:03;;;;;;;4.20;2.33;;;21.50;91.90;;;;;;4990025;28;20465;-82
2021/10/22 10:11:29;;;;;;;3.50;2.13;;;21.40;90.00;;;;;;4972197;28;20437;-80
2021/10/22 10:14:00;;;;;;;8.10;2.17;;;21.00;86.40;;;;;;5005273;28;20496;-79
2021/10/22 10:16:28;;;;;;;5.50;2.30;;;19.90;83.00;;;;;;4971755;28;20456;-81
2021/10/22 10:19:05;;;;;;;6.57;2.20;;;18.20;85.00;;;;;;5007831;28;20572;-83
2021/10/22 10:21:38;;;;;;;4.37;2.20;;;17.60;86.90;;;;;;4978831;28;20451;-81
2021/10/22 10:24:06;;;;;;;6.83;1.97;;;18.20;90.60;;;;;;4993261;28;20433;-83
2021/10/22 10:26:34;;;;;;;2.37;1.97;;;18.30;86.50;;;;;;4981325;28;20927;-84
2021/10/22 10:29:03;;;;;;;4.73;2.33;;;17.20;86.70;;;;;;5027057;28;20526;-84
2021/10/22 10:31:40;;;;;;;4.30;2.37;;;17.90;89.90;;;;;;5013056;28;20792;-83
2021/10/22 10:34:36;;;;;;;5.23;1.80;;;18.50;87.40;;;;;;5016260;28;20437;-80
2021/10/22 10:37:25;;;;;;;3.70;2.20;;;17.10;87.80;;;;;;5028463;28;20485;-79
2021/10/22 10:40:05;;;;;;;6.10;3.13;;;18.00;90.40;;;;;;5001518;28;20465;-81
2021/10/22 10:42:45;;;;;;;4.60;2.37;;;17.30;90.00;;;;;;5018788;28;20443;-80
2021/10/22 10:45:39;;;;;;;5.43;2.13;;;17.50;89.90;;;;;;5002127;28;20475;-82
2021/10/22 10:48:08;;;;;;;3.47;2.10;;;18.30;87.00;;;;;;5017062;28;20430;-80
2021/10/22 10:50:56;;;;;;;8.37;2.30;;;18.80;87.00;;;;;;5020485;28;20468;-79
2021/10/22 10:53:38;;;;;;;2.20;2.00;;;19.00;82.30;;;;;;5025683;28;20482;-79
2021/10/22 10:56:27;;;;;;;7.70;2.57;;;19.80;83.00;;;;;;5014170;28;20435;-81
2021/10/22 10:58:58;;;;;;;11.07;2.67;;;19.20;82.80;;;;;;4989666;28;20780;-82
2021/10/22 11:01:31;;;;;;;4.40;2.30;;;19.20;84.50;;;;;;4971756;28;20439;-81
2021/10/22 11:03:58;;;;;;;4.30;1.83;;;17.00;87.80;;;;;;4922418;29;20491;-82
2021/10/22 11:06:44;;;;;;;4.70;2.87;;;17.40;82.30;;;;;;4943802;29;20432;-82
2021/10/22 11:09:20;;;;;;;3.37;1.83;;;19.10;84.80;;;;;;4932033;29;20940;-81
2021/10/22 11:12:06;;;;;;;3.83;1.60;;;17.90;78.40;;;;;;4912259;29;20468;-82
2021/10/22 11:14:45;;;;;;;3.00;2.10;;;17.60;81.50;;;;;;4909938;29;20457;-83
2021/10/22 11:17:14;;;;;;;5.53;2.07;;;19.30;80.00;;;;;;4902676;29;20440;-82
2021/10/22 11:19:46;;;;;;;4.83;2.00;;;19.40;78.20;;;;;;4929785;29;20439;-81
2021/10/22 11:22:17;;;;;;;4.47;3.13;;;20.20;75.90;;;;;;4918494;29;20528;-81
2021/10/22 11:24:43;;;;;;;11.73;2.40;;;19.00;75.90;;;;;;4927223;29;20440;-79
2021/10/22 11:27:14;;;;;;;3.27;1.93;;;18.70;75.00;;;;;;4915960;29;20465;-82
2021/10/22 11:29:43;;;;;;;6.30;2.10;;;18.40;76.30;;;;;;4924290;29;20471;-81
2021/10/22 11:32:14;;;;;;;3.30;2.17;;;17.20;76.10;;;;;;4935020;29;20444;-78
2021/10/22 11:34:58;;;;;;;2.30;1.57;;;18.10;76.50;;;;;;4943360;29;20567;-81
2021/10/22 11:37:29;;;;;;;4.10;1.80;;;18.10;75.20;;;;;;4932271;29;20444;-81
2021/10/22 11:40:03;;;;;;;3.63;2.53;;;18.60;76.20;;;;;;4890380;29;20424;-81
2021/10/22 11:42:33;;;;;;;5.03;2.10;;;19.30;72.90;;;;;;4948526;28;20438;-82
2021/10/22 11:45:09;;;;;;;1.77;1.53;;;18.70;74.60;;;;;;4965992;28;20414;-82
2021/10/22 11:47:41;;;;;;;3.40;2.17;;;18.80;72.70;;;;;;4960124;28;20443;-83
2021/10/22 11:50:14;;;;;;;3.77;2.30;;;16.50;74.40;;;;;;4966336;28;20471;-84
2021/10/22 11:52:40;;;;;;;7.50;2.27;;;17.20;82.00;;;;;;4953034;28;20447;-83
2021/10/22 11:55:06;;;;;;;1.90;1.57;;;19.20;75.50;;;;;;4972672;28;20781;-84
2021/10/22 11:57:35;;;;;;;2.90;1.90;;;19.30;71.60;;;;;;4972410;28;20563;-83
2021/10/22 12:00:03;;;;;;;4.03;2.20;;;18.60;72.50;;;;;;4973268;28;20446;-83
2021/10/22 12:02:30;;;;;;;4.03;2.07;;;19.00;72.80;;;;;;4988476;28;20437;-83
2021/10/22 12:05:06;;;;;;;4.90;2.40;;;20.00;72.50;;;;;;4974586;28;20788;-83
2021/10/22 12:07:43;;;;;;;8.57;2.10;;;20.60;69.40;;;;;;4949547;28;20441;-82
2021/10/22 12:10:13;;;;;;;4.43;2.17;;;20.70;70.90;;;;;;4976671;28;20475;-83
2021/10/22 12:12:44;;;;;;;4.90;2.47;;;21.00;68.00;;;;;;4979750;28;20585;-84
2021/10/22 12:15:14;;;;;;;3.20;2.20;;;21.50;67.40;;;;;;4977426;28;20442;-84
2021/10/22 12:17:42;;;;;;;6.53;2.50;;;21.20;66.40;;;;;;4974410;28;20652;-84
2021/10/22 12:20:09;;;;;;;3.80;2.40;;;20.90;67.20;;;;;;4973596;28;20442;-84
2021/10/22 12:22:39;;;;;;;5.87;2.40;;;20.70;69.90;;;;;;4977278;28;20492;-83
2021/10/22 12:25:22;;;;;;;2.60;2.20;;;19.30;67.20;;;;;;4980337;28;20865;-85
2021/10/22 12:27:50;;;;;;;2.40;1.87;;;18.30;73.10;;;;;;4997765;28;20880;-84
2021/10/22 12:30:19;;;;;;;1.93;1.67;;;19.50;72.40;;;;;;5023874;28;20464;-83
2021/10/22 12:32:48;;;;;;;3.37;1.90;;;21.20;65.10;;;;;;5021858;28;20436;-83
2021/10/22 12:35:19;;;;;;;6.73;2.80;;;21.90;62.80;;;;;;5020974;28;20491;-82
2021/10/22 12:38:00;;;;;;;2.97;2.03;;;22.60;62.60;;;;;;5007562;28;20447;-84
2021/10/22 12:40:29;;;;;;;3.23;1.93;;;21.30;63.30;;;;;;4987666;28;20424;-82
2021/10/22 12:43:15;;;;;;;2.80;1.80;;;21.80;64.20;;;;;;5020227;28;20627;-81
2021/10/22 12:45:49;;;;;;;2.37;1.70;;;22.20;62.80;;;;;;5023245;28;20490;-82
2021/10/22 12:48:39;;;;;;;4.60;1.87;;;22.20;62.80;;;;;;4991760;28;20467;-82
2021/10/22 12:51:15;;;;;;;2.53;1.97;;;21.40;64.60;;;;;;5022685;28;20527;-83
2021/10/22 12:54:05;;;;;;;6.37;2.23;;;20.80;66.70;;;;;;5018935;28;20491;-83
2021/10/22 12:56:33;;;;;;;4.57;2.23;;;19.80;66.70;;;;;;4987561;28;20464;-83
2021/10/22 12:59:02;;;;;;;4.67;2.70;;;20.50;67.70;;;;;;4992815;28;20541;-83
2021/10/22 13:01:37;;;;;;;5.83;2.80;;;19.80;69.60;;;;;;4958106;28;20436;-84
2021/10/22 13:04:05;;;;;;;3.23;1.80;;;19.00;69.60;;;;;;4993313;28;20851;-83
2021/10/22 13:06:49;;;;;;;2.70;2.13;;;20.50;67.30;;;;;;4989301;28;20425;-84
2021/10/22 13:09:32;;;;;;;3.37;1.67;;;21.80;66.60;;;;;;4989317;28;20531;-83
2021/10/22 13:12:32;;;;;;;7.47;2.67;;;22.60;65.20;;;;;;4969761;28;20437;-83